CPA501 RJAA-RPLL
Flight info
| Callsign | CPA501 |
|---|---|
| Flight time | N/A |
| Altitude | 38000 |
| Route | SAMUS T844 BUBDO A590 OLDUP/N0469F400 A590 MUPOB Z153 POLIO POLIO7R |
| Aircraft | A343/H-SDE2E3FGHIJ4J5M1RWXY/LB1D1 |
Departure
| Time | 2026-05-06 01:30 |
|---|---|
| Airport | Narita International Airport (RJAA) |
Arrival
| Time | N/A |
|---|---|
| Airport | Ninoy Aquino International Airport (RPLL) |
| Time | Latitude | Longitude | Altitude | Speed | Heading |
|---|---|---|---|---|---|
| 2026-05-06 01:00 | 35.76187 | 140.38350 | 152 ft | 0 kts | 59° |
| 2026-05-06 01:05 | 35.76184 | 140.38343 | 152 ft | 2 kts | 59° |
| 2026-05-06 01:05 | 35.76174 | 140.38322 | 152 ft | 3 kts | 59° |
| 2026-05-06 01:05 | 35.76163 | 140.38301 | 152 ft | 3 kts | 59° |
| 2026-05-06 01:05 | 35.76155 | 140.38284 | 152 ft | 2 kts | 58° |
| 2026-05-06 01:06 | 35.76144 | 140.38268 | 152 ft | 3 kts | 33° |
| 2026-05-06 01:06 | 35.76131 | 140.38263 | 152 ft | 3 kts | 358° |
| 2026-05-06 01:06 | 35.76114 | 140.38270 | 152 ft | 3 kts | 332° |
| 2026-05-06 01:06 | 35.76098 | 140.38281 | 152 ft | 2 kts | 329° |
| 2026-05-06 01:07 | 35.76091 | 140.38286 | 152 ft | 0 kts | 329° |
| 2026-05-06 01:07 | 35.76091 | 140.38287 | 152 ft | 0 kts | 329° |
| 2026-05-06 01:08 | 35.76091 | 140.38286 | 152 ft | 0 kts | 329° |
| 2026-05-06 01:14 | 35.76092 | 140.38286 | 152 ft | 0 kts | 329° |
| 2026-05-06 01:15 | 35.76092 | 140.38285 | 152 ft | 0 kts | 329° |
| 2026-05-06 01:16 | 35.76093 | 140.38285 | 152 ft | 0 kts | 329° |
| 2026-05-06 01:17 | 35.76099 | 140.38281 | 152 ft | 4 kts | 329° |
| 2026-05-06 01:18 | 35.76132 | 140.38257 | 152 ft | 7 kts | 329° |
| 2026-05-06 01:18 | 35.76173 | 140.38228 | 152 ft | 7 kts | 329° |
| 2026-05-06 01:18 | 35.76213 | 140.38199 | 152 ft | 7 kts | 329° |
| 2026-05-06 01:18 | 35.76253 | 140.38170 | 152 ft | 7 kts | 329° |
| 2026-05-06 01:19 | 35.76293 | 140.38141 | 152 ft | 7 kts | 329° |
| 2026-05-06 01:19 | 35.76332 | 140.38113 | 152 ft | 7 kts | 329° |
| 2026-05-06 01:19 | 35.76371 | 140.38085 | 152 ft | 6 kts | 329° |
| 2026-05-06 01:19 | 35.76410 | 140.38057 | 152 ft | 6 kts | 329° |
| 2026-05-06 01:20 | 35.76448 | 140.38030 | 152 ft | 6 kts | 329° |
| 2026-05-06 01:20 | 35.76487 | 140.38002 | 152 ft | 6 kts | 329° |
| 2026-05-06 01:20 | 35.76524 | 140.37975 | 152 ft | 6 kts | 329° |
| 2026-05-06 01:20 | 35.76561 | 140.37949 | 152 ft | 6 kts | 329° |
| 2026-05-06 01:21 | 35.76594 | 140.37919 | 152 ft | 5 kts | 313° |
| 2026-05-06 01:21 | 35.76606 | 140.37887 | 152 ft | 3 kts | 276° |
| 2026-05-06 01:21 | 35.76606 | 140.37864 | 152 ft | 1 kts | 261° |
| 2026-05-06 01:21 | 35.76604 | 140.37852 | 152 ft | 2 kts | 255° |
| 2026-05-06 01:22 | 35.76595 | 140.37824 | 152 ft | 5 kts | 242° |
| 2026-05-06 01:22 | 35.76574 | 140.37774 | 152 ft | 8 kts | 250° |
| 2026-05-06 01:22 | 35.76582 | 140.37705 | 152 ft | 8 kts | 301° |
| 2026-05-06 01:22 | 35.76633 | 140.37651 | 152 ft | 12 kts | 328° |
| 2026-05-06 01:23 | 35.76714 | 140.37591 | 152 ft | 15 kts | 329° |
| 2026-05-06 01:23 | 35.76817 | 140.37517 | 152 ft | 19 kts | 333° |
| 2026-05-06 01:23 | 35.76942 | 140.37427 | 152 ft | 22 kts | 329° |
| 2026-05-06 01:23 | 35.76993 | 140.37391 | 152 ft | 23 kts | 330° |
| 2026-05-06 01:24 | 35.77109 | 140.37307 | 152 ft | 21 kts | 331° |
| 2026-05-06 01:24 | 35.77227 | 140.37222 | 152 ft | 18 kts | 328° |
| 2026-05-06 01:24 | 35.77334 | 140.37142 | 152 ft | 18 kts | 329° |
| 2026-05-06 01:25 | 35.77415 | 140.37083 | 152 ft | 7 kts | 326° |
| 2026-05-06 01:25 | 35.77422 | 140.37077 | 152 ft | 1 kts | 326° |
| 2026-05-06 01:25 | 35.77423 | 140.37076 | 152 ft | 1 kts | 326° |
| 2026-05-06 01:25 | 35.77433 | 140.37068 | 152 ft | 6 kts | 325° |
| 2026-05-06 01:26 | 35.77471 | 140.37027 | 152 ft | 7 kts | 308° |
| 2026-05-06 01:26 | 35.77486 | 140.36981 | 152 ft | 4 kts | 277° |
| 2026-05-06 01:26 | 35.77484 | 140.36966 | 152 ft | 1 kts | 255° |
| 2026-05-06 01:26 | 35.77471 | 140.36930 | 152 ft | 9 kts | 242° |
| 2026-05-06 01:27 | 35.77437 | 140.36854 | 152 ft | 8 kts | 240° |
| 2026-05-06 01:27 | 35.77419 | 140.36838 | 152 ft | 1 kts | 183° |
| 2026-05-06 01:27 | 35.77404 | 140.36843 | 152 ft | 5 kts | 155° |
| 2026-05-06 01:27 | 35.77392 | 140.36851 | 152 ft | 0 kts | 151° |
| 2026-05-06 01:28 | 35.77392 | 140.36852 | 152 ft | 0 kts | 151° |
| 2026-05-06 01:28 | 35.77391 | 140.36852 | 152 ft | 0 kts | 151° |
| 2026-05-06 01:28 | 35.77343 | 140.36885 | 152 ft | 30 kts | 150° |
| 2026-05-06 01:29 | 35.76986 | 140.37139 | 152 ft | 85 kts | 150° |
| 2026-05-06 01:29 | 35.76347 | 140.37598 | 152 ft | 127 kts | 150° |
| 2026-05-06 01:29 | 35.75481 | 140.38217 | 163 ft | 157 kts | 152° |
| 2026-05-06 01:29 | 35.74538 | 140.38891 | 600 ft | 151 kts | 152° |
| 2026-05-06 01:30 | 35.73629 | 140.39547 | 1062 ft | 154 kts | 151° |
| 2026-05-06 01:30 | 35.72684 | 140.40227 | 1463 ft | 161 kts | 153° |
| 2026-05-06 01:30 | 35.71705 | 140.40931 | 1889 ft | 166 kts | 152° |
| 2026-05-06 01:30 | 35.71040 | 140.41408 | 2122 ft | 169 kts | 152° |
| 2026-05-06 01:31 | 35.69654 | 140.42405 | 2578 ft | 178 kts | 153° |
| 2026-05-06 01:31 | 35.68558 | 140.43192 | 2862 ft | 187 kts | 153° |
| 2026-05-06 01:31 | 35.67787 | 140.43747 | 3076 ft | 196 kts | 153° |
| 2026-05-06 01:31 | 35.66561 | 140.44622 | 3500 ft | 214 kts | 152° |
| 2026-05-06 01:32 | 35.65220 | 140.45585 | 4132 ft | 227 kts | 152° |
| 2026-05-06 01:32 | 35.63831 | 140.46584 | 4810 ft | 238 kts | 153° |
| 2026-05-06 01:32 | 35.62368 | 140.47645 | 5595 ft | 246 kts | 153° |
| 2026-05-06 01:32 | 35.60870 | 140.48743 | 6376 ft | 254 kts | 152° |
| 2026-05-06 01:33 | 35.59341 | 140.49858 | 7169 ft | 257 kts | 152° |
| 2026-05-06 01:33 | 35.57806 | 140.50979 | 7946 ft | 261 kts | 152° |
| 2026-05-06 01:33 | 35.56224 | 140.52122 | 8691 ft | 266 kts | 152° |
| 2026-05-06 01:33 | 35.54610 | 140.53278 | 9418 ft | 271 kts | 152° |
| 2026-05-06 01:34 | 35.52976 | 140.54449 | 10166 ft | 273 kts | 152° |
| 2026-05-06 01:34 | 35.51306 | 140.55646 | 10859 ft | 279 kts | 151° |
| 2026-05-06 01:34 | 35.49616 | 140.56858 | 11446 ft | 287 kts | 151° |
| 2026-05-06 01:34 | 35.47870 | 140.58109 | 11994 ft | 296 kts | 151° |
| 2026-05-06 01:35 | 35.46074 | 140.59396 | 12518 ft | 305 kts | 151° |
| 2026-05-06 01:35 | 35.44197 | 140.60752 | 13020 ft | 315 kts | 149° |
| 2026-05-06 01:35 | 35.42522 | 140.62540 | 13544 ft | 325 kts | 135° |
| 2026-05-06 01:35 | 35.41089 | 140.64710 | 14046 ft | 335 kts | 128° |
| 2026-05-06 01:36 | 35.39783 | 140.67111 | 14521 ft | 344 kts | 125° |
| 2026-05-06 01:36 | 35.38464 | 140.69595 | 14944 ft | 353 kts | 126° |
| 2026-05-06 01:36 | 35.37066 | 140.72151 | 15430 ft | 360 kts | 127° |
| 2026-05-06 01:36 | 35.35642 | 140.74710 | 16003 ft | 365 kts | 128° |
| 2026-05-06 01:37 | 35.34211 | 140.77276 | 16611 ft | 368 kts | 128° |
| 2026-05-06 01:37 | 35.32752 | 140.79891 | 17169 ft | 372 kts | 127° |
| 2026-05-06 01:37 | 35.31284 | 140.82526 | 17737 ft | 376 kts | 128° |
| 2026-05-06 01:37 | 35.29810 | 140.85164 | 18246 ft | 382 kts | 128° |
| 2026-05-06 01:38 | 35.28279 | 140.87899 | 18722 ft | 389 kts | 129° |
| 2026-05-06 01:38 | 35.26763 | 140.90616 | 19288 ft | 392 kts | 129° |
| 2026-05-06 01:38 | 35.25209 | 140.93393 | 19898 ft | 395 kts | 130° |
| 2026-05-06 01:38 | 35.23426 | 140.95947 | 20242 ft | 397 kts | 143° |
| 2026-05-06 01:39 | 35.21189 | 140.97928 | 20541 ft | 398 kts | 157° |
| 2026-05-06 01:39 | 35.18648 | 140.99198 | 20984 ft | 394 kts | 171° |
| 2026-05-06 01:39 | 35.15948 | 140.99713 | 21528 ft | 387 kts | 184° |
| 2026-05-06 01:39 | 35.13306 | 140.99470 | 22050 ft | 381 kts | 197° |
| 2026-05-06 01:40 | 35.10795 | 140.98495 | 22621 ft | 375 kts | 209° |
| 2026-05-06 01:40 | 35.08569 | 140.96854 | 23226 ft | 369 kts | 221° |
| 2026-05-06 01:40 | 35.06593 | 140.94930 | 23920 ft | 367 kts | 218° |
| 2026-05-06 01:40 | 35.04401 | 140.93278 | 24649 ft | 366 kts | 216° |
| 2026-05-06 01:41 | 35.02215 | 140.91686 | 25193 ft | 367 kts | 216° |
| 2026-05-06 01:41 | 35.00024 | 140.90094 | 25685 ft | 369 kts | 216° |
| 2026-05-06 01:41 | 34.97772 | 140.88553 | 26214 ft | 372 kts | 213° |
| 2026-05-06 01:41 | 34.95433 | 140.87114 | 26725 ft | 375 kts | 213° |
| 2026-05-06 01:42 | 34.93097 | 140.85723 | 27170 ft | 377 kts | 212° |
| 2026-05-06 01:42 | 34.90737 | 140.84326 | 27590 ft | 380 kts | 213° |
| 2026-05-06 01:42 | 34.88348 | 140.82911 | 28015 ft | 382 kts | 213° |
| 2026-05-06 01:42 | 34.85953 | 140.81493 | 28441 ft | 383 kts | 213° |
| 2026-05-06 01:43 | 34.83537 | 140.80062 | 28850 ft | 385 kts | 213° |
| 2026-05-06 01:43 | 34.81124 | 140.78634 | 29247 ft | 386 kts | 213° |
| 2026-05-06 01:43 | 34.78735 | 140.77221 | 29621 ft | 388 kts | 214° |
| 2026-05-06 01:43 | 34.76303 | 140.75784 | 29989 ft | 389 kts | 214° |
| 2026-05-06 01:44 | 34.73853 | 140.74337 | 30350 ft | 391 kts | 214° |
| 2026-05-06 01:44 | 34.71409 | 140.72894 | 30672 ft | 393 kts | 214° |
| 2026-05-06 01:44 | 34.68940 | 140.71437 | 30999 ft | 394 kts | 214° |
| 2026-05-06 01:44 | 34.66471 | 140.69980 | 31299 ft | 396 kts | 214° |
| 2026-05-06 01:45 | 34.63974 | 140.68509 | 31608 ft | 398 kts | 214° |
| 2026-05-06 01:45 | 34.61493 | 140.67048 | 31877 ft | 400 kts | 214° |
| 2026-05-06 01:45 | 34.58974 | 140.65566 | 32155 ft | 401 kts | 214° |
| 2026-05-06 01:45 | 34.56440 | 140.64075 | 32411 ft | 403 kts | 213° |
| 2026-05-06 01:46 | 34.53919 | 140.62594 | 32662 ft | 405 kts | 213° |
| 2026-05-06 01:46 | 34.51400 | 140.61114 | 32881 ft | 406 kts | 213° |
| 2026-05-06 01:46 | 34.48859 | 140.59622 | 33116 ft | 407 kts | 213° |
| 2026-05-06 01:46 | 34.46289 | 140.58116 | 33403 ft | 406 kts | 213° |
| 2026-05-06 01:47 | 34.43764 | 140.56636 | 33672 ft | 406 kts | 213° |
| 2026-05-06 01:47 | 34.41214 | 140.55142 | 33970 ft | 404 kts | 213° |
| 2026-05-06 01:47 | 34.38691 | 140.53665 | 34250 ft | 403 kts | 213° |
| 2026-05-06 01:47 | 34.36163 | 140.52186 | 34486 ft | 404 kts | 213° |
| 2026-05-06 01:48 | 34.33645 | 140.50715 | 34729 ft | 403 kts | 213° |
| 2026-05-06 01:48 | 34.31122 | 140.49241 | 34954 ft | 403 kts | 213° |
| 2026-05-06 01:48 | 34.28576 | 140.47755 | 35171 ft | 404 kts | 213° |
| 2026-05-06 01:48 | 34.26056 | 140.46285 | 35387 ft | 404 kts | 214° |
| 2026-05-06 01:49 | 34.23531 | 140.44813 | 35613 ft | 403 kts | 214° |
| 2026-05-06 01:49 | 34.20997 | 140.43337 | 35815 ft | 404 kts | 214° |
| 2026-05-06 01:49 | 34.18433 | 140.41845 | 36023 ft | 404 kts | 214° |
| 2026-05-06 01:49 | 34.15922 | 140.40385 | 36234 ft | 404 kts | 214° |
| 2026-05-06 01:50 | 34.13400 | 140.38919 | 36439 ft | 404 kts | 214° |
| 2026-05-06 01:50 | 34.10866 | 140.37446 | 36631 ft | 404 kts | 214° |
| 2026-05-06 01:50 | 34.08338 | 140.35979 | 36817 ft | 404 kts | 214° |
| 2026-05-06 01:50 | 34.05810 | 140.34513 | 37003 ft | 404 kts | 214° |
| 2026-05-06 01:51 | 34.03113 | 140.32949 | 37195 ft | 404 kts | 214° |
| 2026-05-06 01:51 | 34.00557 | 140.31469 | 37250 ft | 405 kts | 214° |
| 2026-05-06 01:51 | 33.95461 | 140.28518 | 37272 ft | 406 kts | 214° |
| 2026-05-06 01:52 | 33.90360 | 140.25569 | 37273 ft | 406 kts | 214° |
| 2026-05-06 01:52 | 33.85251 | 140.22718 | 37251 ft | 402 kts | 217° |
| 2026-05-06 01:53 | 33.82968 | 140.20793 | 37252 ft | 393 kts | 229° |
| 2026-05-06 01:53 | 33.81182 | 140.18382 | 37264 ft | 388 kts | 239° |
| 2026-05-06 01:53 | 33.78151 | 140.13034 | 37252 ft | 384 kts | 238° |
| 2026-05-06 01:54 | 33.74936 | 140.07947 | 37246 ft | 383 kts | 237° |
| 2026-05-06 01:54 | 33.71656 | 140.02873 | 37250 ft | 383 kts | 237° |
| 2026-05-06 01:55 | 33.68381 | 139.97816 | 37254 ft | 384 kts | 237° |
| 2026-05-06 01:55 | 33.65122 | 139.92788 | 37257 ft | 383 kts | 237° |
| 2026-05-06 01:56 | 33.61846 | 139.87743 | 37260 ft | 383 kts | 237° |
| 2026-05-06 01:56 | 33.58571 | 139.82707 | 37263 ft | 383 kts | 237° |
| 2026-05-06 01:57 | 33.55271 | 139.77639 | 37266 ft | 384 kts | 237° |
| 2026-05-06 01:57 | 33.51993 | 139.72611 | 37270 ft | 384 kts | 237° |
| 2026-05-06 01:58 | 33.49248 | 139.68406 | 37272 ft | 384 kts | 236° |
| 2026-05-06 01:58 | 33.45412 | 139.62537 | 37270 ft | 384 kts | 236° |
| 2026-05-06 01:59 | 33.42659 | 139.58334 | 37269 ft | 385 kts | 236° |
| 2026-05-06 01:59 | 33.39355 | 139.53292 | 37269 ft | 385 kts | 236° |
| 2026-05-06 02:00 | 33.35502 | 139.47423 | 37267 ft | 384 kts | 236° |
| 2026-05-06 02:00 | 33.32733 | 139.43210 | 37266 ft | 384 kts | 236° |
| 2026-05-06 02:01 | 33.29439 | 139.38205 | 37265 ft | 385 kts | 236° |
| 2026-05-06 02:01 | 33.26113 | 139.33159 | 37265 ft | 385 kts | 236° |
| 2026-05-06 02:02 | 33.22804 | 139.28146 | 37264 ft | 385 kts | 236° |
| 2026-05-06 02:02 | 33.19490 | 139.23130 | 37263 ft | 385 kts | 236° |
| 2026-05-06 02:03 | 33.16152 | 139.18087 | 37262 ft | 385 kts | 236° |
| 2026-05-06 02:03 | 33.12842 | 139.13092 | 37261 ft | 385 kts | 236° |
| 2026-05-06 02:04 | 33.09516 | 139.08081 | 37260 ft | 385 kts | 236° |
| 2026-05-06 02:04 | 33.06174 | 139.03051 | 37260 ft | 385 kts | 236° |
| 2026-05-06 02:05 | 33.02857 | 138.98066 | 37259 ft | 385 kts | 236° |
| 2026-05-06 02:05 | 32.99533 | 138.93078 | 37258 ft | 385 kts | 236° |
| 2026-05-06 02:06 | 32.96189 | 138.88066 | 37257 ft | 385 kts | 236° |
| 2026-05-06 02:06 | 32.92862 | 138.83086 | 37256 ft | 385 kts | 235° |
| 2026-05-06 02:07 | 32.89527 | 138.78101 | 37255 ft | 386 kts | 235° |
| 2026-05-06 02:07 | 32.86168 | 138.73087 | 37254 ft | 386 kts | 235° |
| 2026-05-06 02:08 | 32.82840 | 138.68126 | 37253 ft | 386 kts | 235° |
| 2026-05-06 02:08 | 32.79490 | 138.63140 | 37252 ft | 386 kts | 235° |
| 2026-05-06 02:09 | 32.76130 | 138.58138 | 37251 ft | 386 kts | 235° |
| 2026-05-06 02:09 | 32.72779 | 138.53156 | 37251 ft | 387 kts | 235° |
| 2026-05-06 02:10 | 32.69416 | 138.48163 | 37250 ft | 387 kts | 235° |
| 2026-05-06 02:10 | 32.66061 | 138.43189 | 37248 ft | 387 kts | 235° |
| 2026-05-06 02:11 | 32.62679 | 138.38180 | 37248 ft | 388 kts | 235° |
| 2026-05-06 02:11 | 32.59291 | 138.33170 | 37247 ft | 388 kts | 235° |
| 2026-05-06 02:12 | 32.55934 | 138.28211 | 37246 ft | 388 kts | 235° |
| 2026-05-06 02:12 | 32.52558 | 138.23232 | 37245 ft | 388 kts | 235° |
| 2026-05-06 02:13 | 32.49169 | 138.18240 | 37244 ft | 388 kts | 235° |
| 2026-05-06 02:13 | 32.45782 | 138.13260 | 37244 ft | 389 kts | 235° |
| 2026-05-06 02:14 | 32.42388 | 138.08273 | 37243 ft | 389 kts | 234° |
| 2026-05-06 02:14 | 32.38998 | 138.03301 | 37242 ft | 389 kts | 234° |
| 2026-05-06 02:15 | 32.35614 | 137.98342 | 37241 ft | 389 kts | 234° |
| 2026-05-06 02:15 | 32.32202 | 137.93350 | 37240 ft | 389 kts | 234° |
| 2026-05-06 02:16 | 32.28800 | 137.88379 | 37239 ft | 389 kts | 234° |
| 2026-05-06 02:16 | 32.25397 | 137.83413 | 37238 ft | 389 kts | 234° |
| 2026-05-06 02:17 | 32.21997 | 137.78458 | 37237 ft | 389 kts | 234° |
| 2026-05-06 02:17 | 32.18584 | 137.73491 | 37234 ft | 389 kts | 234° |
| 2026-05-06 02:18 | 32.15191 | 137.68559 | 37215 ft | 389 kts | 234° |
| 2026-05-06 02:18 | 32.11781 | 137.63609 | 37204 ft | 389 kts | 234° |
| 2026-05-06 02:19 | 32.08352 | 137.58638 | 37204 ft | 389 kts | 234° |
| 2026-05-06 02:19 | 32.04929 | 137.53683 | 37202 ft | 389 kts | 234° |
| 2026-05-06 02:20 | 31.99802 | 137.46272 | 37203 ft | 389 kts | 234° |
| 2026-05-06 02:21 | 31.96387 | 137.41343 | 37205 ft | 390 kts | 234° |
| 2026-05-06 02:21 | 31.92949 | 137.36388 | 37208 ft | 391 kts | 234° |
| 2026-05-06 02:22 | 31.89515 | 137.31447 | 37211 ft | 390 kts | 234° |
| 2026-05-06 02:22 | 31.86077 | 137.26505 | 37214 ft | 390 kts | 234° |
| 2026-05-06 02:23 | 31.82627 | 137.21552 | 37213 ft | 390 kts | 234° |
| 2026-05-06 02:23 | 31.79183 | 137.16615 | 37211 ft | 390 kts | 234° |
| 2026-05-06 02:24 | 31.75751 | 137.11701 | 37210 ft | 390 kts | 234° |
| 2026-05-06 02:24 | 31.72297 | 137.06762 | 37208 ft | 390 kts | 234° |
| 2026-05-06 02:25 | 31.68849 | 137.01838 | 37207 ft | 390 kts | 234° |
| 2026-05-06 02:25 | 31.65388 | 136.96902 | 37205 ft | 390 kts | 234° |
| 2026-05-06 02:26 | 31.61941 | 136.91991 | 37204 ft | 390 kts | 234° |
| 2026-05-06 02:26 | 31.58492 | 136.87084 | 37202 ft | 390 kts | 234° |
| 2026-05-06 02:27 | 31.55037 | 136.82175 | 37201 ft | 390 kts | 234° |
| 2026-05-06 02:27 | 31.51581 | 136.77272 | 37199 ft | 390 kts | 234° |
| 2026-05-06 02:28 | 31.48121 | 136.72368 | 37198 ft | 390 kts | 234° |
| 2026-05-06 02:28 | 31.44654 | 136.67462 | 37196 ft | 391 kts | 234° |
| 2026-05-06 02:29 | 31.40785 | 136.62943 | 37191 ft | 393 kts | 227° |
| 2026-05-06 02:29 | 31.36678 | 136.58733 | 37191 ft | 395 kts | 226° |
| 2026-05-06 02:30 | 31.32540 | 136.54518 | 37190 ft | 396 kts | 226° |
| 2026-05-06 02:30 | 31.28378 | 136.50278 | 37189 ft | 396 kts | 226° |
| 2026-05-06 02:31 | 31.24222 | 136.46049 | 37187 ft | 396 kts | 226° |
| 2026-05-06 02:31 | 31.20082 | 136.41840 | 37186 ft | 396 kts | 226° |
| 2026-05-06 02:32 | 31.15936 | 136.37630 | 37184 ft | 396 kts | 226° |
| 2026-05-06 02:32 | 31.11767 | 136.33403 | 37184 ft | 395 kts | 226° |
| 2026-05-06 02:33 | 31.07630 | 136.29212 | 37181 ft | 395 kts | 226° |
| 2026-05-06 02:33 | 31.06239 | 136.27804 | 37181 ft | 395 kts | 226° |
| 2026-05-06 02:34 | 30.99303 | 136.20793 | 37179 ft | 395 kts | 226° |
| 2026-05-06 02:34 | 30.95168 | 136.16620 | 37182 ft | 395 kts | 226° |
| 2026-05-06 02:35 | 30.90996 | 136.12414 | 37185 ft | 395 kts | 226° |
| 2026-05-06 02:35 | 30.86835 | 136.08225 | 37187 ft | 395 kts | 226° |
| 2026-05-06 02:36 | 30.82687 | 136.04054 | 37190 ft | 396 kts | 226° |
| 2026-05-06 02:36 | 30.78514 | 135.99862 | 37193 ft | 395 kts | 226° |
| 2026-05-06 02:37 | 30.74374 | 135.95709 | 37194 ft | 393 kts | 226° |
| 2026-05-06 02:37 | 30.70225 | 135.91550 | 37195 ft | 392 kts | 225° |
| 2026-05-06 02:38 | 30.66093 | 135.87414 | 37198 ft | 393 kts | 225° |
| 2026-05-06 02:38 | 30.61959 | 135.83282 | 37198 ft | 393 kts | 225° |
| 2026-05-06 02:39 | 30.57820 | 135.79149 | 37197 ft | 393 kts | 225° |
| 2026-05-06 02:39 | 30.54356 | 135.75694 | 37196 ft | 393 kts | 225° |
| 2026-05-06 02:40 | 30.50213 | 135.71565 | 37194 ft | 393 kts | 225° |
| 2026-05-06 02:40 | 30.46055 | 135.67428 | 37192 ft | 393 kts | 225° |
| 2026-05-06 02:41 | 30.41888 | 135.63285 | 37191 ft | 393 kts | 225° |
| 2026-05-06 02:41 | 30.37743 | 135.59170 | 37189 ft | 393 kts | 225° |
| 2026-05-06 02:42 | 30.33588 | 135.55049 | 37188 ft | 393 kts | 225° |
| 2026-05-06 02:42 | 30.29429 | 135.50929 | 37186 ft | 393 kts | 225° |
| 2026-05-06 02:43 | 30.25280 | 135.46824 | 37183 ft | 393 kts | 225° |
| 2026-05-06 02:43 | 30.21136 | 135.42727 | 37181 ft | 393 kts | 225° |
| 2026-05-06 02:44 | 30.16991 | 135.38635 | 37181 ft | 392 kts | 225° |
| 2026-05-06 02:44 | 30.12832 | 135.34532 | 37178 ft | 392 kts | 225° |
| 2026-05-06 02:45 | 30.08744 | 135.30408 | 37171 ft | 391 kts | 226° |
| 2026-05-06 02:45 | 30.04633 | 135.26251 | 37156 ft | 391 kts | 226° |
| 2026-05-06 02:46 | 30.00560 | 135.22138 | 37146 ft | 390 kts | 225° |
| 2026-05-06 02:46 | 29.96461 | 135.18003 | 37145 ft | 391 kts | 225° |
| 2026-05-06 02:47 | 29.92353 | 135.13866 | 37149 ft | 392 kts | 225° |
| 2026-05-06 02:47 | 29.88230 | 135.09717 | 37152 ft | 392 kts | 225° |
| 2026-05-06 02:48 | 29.84136 | 135.05604 | 37154 ft | 392 kts | 225° |
| 2026-05-06 02:48 | 29.80038 | 135.01490 | 37157 ft | 392 kts | 225° |
| 2026-05-06 02:49 | 29.75910 | 134.97350 | 37159 ft | 392 kts | 225° |
| 2026-05-06 02:49 | 29.71808 | 134.93243 | 37162 ft | 392 kts | 225° |
| 2026-05-06 02:50 | 29.67716 | 134.89148 | 37162 ft | 391 kts | 225° |
| 2026-05-06 02:50 | 29.63603 | 134.85038 | 37130 ft | 391 kts | 224° |
| 2026-05-06 02:51 | 29.59476 | 134.80918 | 37114 ft | 392 kts | 224° |
| 2026-05-06 02:51 | 29.55372 | 134.76827 | 37112 ft | 392 kts | 224° |
| 2026-05-06 02:52 | 29.51245 | 134.72716 | 37112 ft | 392 kts | 224° |
| 2026-05-06 02:52 | 29.47139 | 134.68632 | 37112 ft | 391 kts | 224° |
| 2026-05-06 02:53 | 29.43019 | 134.64537 | 37111 ft | 391 kts | 224° |
| 2026-05-06 02:53 | 29.38922 | 134.60471 | 37111 ft | 391 kts | 224° |
| 2026-05-06 02:54 | 29.34784 | 134.56368 | 37110 ft | 391 kts | 224° |
| 2026-05-06 02:54 | 29.30676 | 134.52299 | 37111 ft | 391 kts | 224° |
| 2026-05-06 02:55 | 29.26554 | 134.48221 | 37110 ft | 392 kts | 224° |
| 2026-05-06 02:55 | 29.22426 | 134.44142 | 37110 ft | 392 kts | 224° |
| 2026-05-06 02:56 | 29.18290 | 134.40060 | 37109 ft | 393 kts | 224° |
| 2026-05-06 02:56 | 29.14147 | 134.35974 | 37108 ft | 394 kts | 224° |
| 2026-05-06 02:57 | 29.10001 | 134.31891 | 37108 ft | 394 kts | 224° |
| 2026-05-06 02:57 | 29.05804 | 134.27762 | 37108 ft | 395 kts | 224° |
| 2026-05-06 02:58 | 29.01659 | 134.23688 | 37108 ft | 396 kts | 224° |
| 2026-05-06 02:58 | 28.97459 | 134.19566 | 37107 ft | 397 kts | 224° |
| 2026-05-06 02:59 | 28.93281 | 134.15468 | 37107 ft | 398 kts | 224° |
| 2026-05-06 02:59 | 28.89081 | 134.11355 | 37106 ft | 399 kts | 224° |
| 2026-05-06 03:00 | 28.84862 | 134.07227 | 37106 ft | 399 kts | 224° |
| 2026-05-06 03:00 | 28.80651 | 134.03112 | 37105 ft | 400 kts | 224° |
| 2026-05-06 03:01 | 28.76402 | 133.98964 | 37105 ft | 401 kts | 224° |
| 2026-05-06 03:01 | 28.72169 | 133.94835 | 37104 ft | 403 kts | 224° |
| 2026-05-06 03:02 | 28.67906 | 133.90683 | 37105 ft | 404 kts | 224° |
| 2026-05-06 03:02 | 28.63632 | 133.86525 | 37104 ft | 404 kts | 224° |
| 2026-05-06 03:03 | 28.59359 | 133.82371 | 37104 ft | 405 kts | 224° |
| 2026-05-06 03:03 | 28.55048 | 133.78188 | 37103 ft | 406 kts | 224° |
| 2026-05-06 03:04 | 28.50764 | 133.74035 | 37103 ft | 406 kts | 224° |
| 2026-05-06 03:04 | 28.46458 | 133.69866 | 37103 ft | 406 kts | 224° |
| 2026-05-06 03:05 | 28.42136 | 133.65685 | 37103 ft | 407 kts | 224° |
| 2026-05-06 03:05 | 28.37821 | 133.61516 | 37099 ft | 408 kts | 224° |
| 2026-05-06 03:06 | 28.33502 | 133.57347 | 37086 ft | 408 kts | 224° |
| 2026-05-06 03:06 | 28.29191 | 133.53191 | 37074 ft | 409 kts | 224° |
| 2026-05-06 03:07 | 28.24837 | 133.48999 | 37070 ft | 409 kts | 224° |
| 2026-05-06 03:07 | 28.20515 | 133.44841 | 37070 ft | 409 kts | 224° |
| 2026-05-06 03:08 | 28.16171 | 133.40667 | 37073 ft | 409 kts | 224° |
| 2026-05-06 03:08 | 28.11838 | 133.36509 | 37073 ft | 410 kts | 224° |
| 2026-05-06 03:09 | 28.07481 | 133.32331 | 37069 ft | 410 kts | 223° |
| 2026-05-06 03:09 | 28.03109 | 133.28144 | 37060 ft | 410 kts | 223° |
| 2026-05-06 03:10 | 27.98758 | 133.23981 | 37049 ft | 411 kts | 223° |
| 2026-05-06 03:10 | 27.94349 | 133.19768 | 37041 ft | 415 kts | 223° |
| 2026-05-06 03:11 | 27.89957 | 133.15576 | 37041 ft | 416 kts | 223° |
| 2026-05-06 03:11 | 27.85517 | 133.11358 | 37040 ft | 417 kts | 223° |
| 2026-05-06 03:12 | 27.81075 | 133.07154 | 37040 ft | 417 kts | 223° |
| 2026-05-06 03:12 | 27.76628 | 133.02949 | 37042 ft | 418 kts | 223° |
| 2026-05-06 03:13 | 27.72147 | 132.98717 | 37041 ft | 418 kts | 223° |
| 2026-05-06 03:13 | 27.67696 | 132.94519 | 37041 ft | 418 kts | 223° |
| 2026-05-06 03:14 | 27.63211 | 132.90293 | 37040 ft | 419 kts | 223° |
| 2026-05-06 03:14 | 27.58756 | 132.86099 | 37039 ft | 419 kts | 223° |
| 2026-05-06 03:15 | 27.54264 | 132.81876 | 37039 ft | 419 kts | 223° |
| 2026-05-06 03:15 | 27.49790 | 132.77674 | 37038 ft | 420 kts | 223° |
| 2026-05-06 03:16 | 27.45313 | 132.73473 | 37038 ft | 420 kts | 223° |
| 2026-05-06 03:16 | 27.40818 | 132.69261 | 37038 ft | 420 kts | 223° |
| 2026-05-06 03:17 | 27.36309 | 132.65039 | 37041 ft | 420 kts | 223° |
| 2026-05-06 03:17 | 27.31839 | 132.60861 | 37041 ft | 420 kts | 223° |
| 2026-05-06 03:18 | 27.27335 | 132.56653 | 37040 ft | 420 kts | 222° |
| 2026-05-06 03:18 | 27.22845 | 132.52464 | 37040 ft | 420 kts | 222° |
| 2026-05-06 03:19 | 27.19075 | 132.48949 | 37039 ft | 420 kts | 223° |
| 2026-05-06 03:19 | 27.14597 | 132.44780 | 37039 ft | 420 kts | 223° |
| 2026-05-06 03:20 | 27.07088 | 132.37798 | 37038 ft | 421 kts | 223° |
| 2026-05-06 03:20 | 27.03335 | 132.34313 | 37041 ft | 419 kts | 222° |
| 2026-05-06 03:21 | 26.98843 | 132.30144 | 37038 ft | 417 kts | 222° |
| 2026-05-06 03:21 | 26.94386 | 132.26014 | 37037 ft | 417 kts | 222° |
| 2026-05-06 03:22 | 26.89917 | 132.21877 | 37036 ft | 417 kts | 222° |
| 2026-05-06 03:22 | 26.85444 | 132.17741 | 37036 ft | 417 kts | 222° |
| 2026-05-06 03:23 | 26.80965 | 132.13603 | 37035 ft | 418 kts | 222° |
| 2026-05-06 03:23 | 26.76477 | 132.09462 | 37034 ft | 418 kts | 222° |
| 2026-05-06 03:24 | 26.71968 | 132.05306 | 37034 ft | 419 kts | 222° |
| 2026-05-06 03:24 | 26.67476 | 132.01169 | 37034 ft | 419 kts | 222° |
| 2026-05-06 03:25 | 26.62956 | 131.97011 | 37033 ft | 419 kts | 221° |
| 2026-05-06 03:25 | 26.58471 | 131.92890 | 37037 ft | 420 kts | 221° |
| 2026-05-06 03:26 | 26.53943 | 131.88733 | 37035 ft | 420 kts | 221° |
| 2026-05-06 03:26 | 26.49445 | 131.84609 | 37035 ft | 420 kts | 221° |
| 2026-05-06 03:27 | 26.44896 | 131.80443 | 37035 ft | 421 kts | 221° |
| 2026-05-06 03:27 | 26.40385 | 131.76315 | 37034 ft | 421 kts | 221° |
| 2026-05-06 03:28 | 26.35868 | 131.72186 | 37038 ft | 421 kts | 221° |
| 2026-05-06 03:28 | 26.31322 | 131.68035 | 37041 ft | 421 kts | 221° |
| 2026-05-06 03:29 | 26.26816 | 131.63925 | 37041 ft | 421 kts | 221° |
| 2026-05-06 03:29 | 26.22285 | 131.59796 | 37040 ft | 421 kts | 221° |
| 2026-05-06 03:30 | 26.17743 | 131.55662 | 37040 ft | 421 kts | 221° |
| 2026-05-06 03:30 | 26.13207 | 131.51538 | 37039 ft | 421 kts | 221° |
| 2026-05-06 03:31 | 26.08673 | 131.47419 | 37039 ft | 421 kts | 221° |
| 2026-05-06 03:31 | 26.04132 | 131.43298 | 37039 ft | 421 kts | 221° |
| 2026-05-06 03:32 | 25.99580 | 131.39172 | 37034 ft | 421 kts | 221° |
| 2026-05-06 03:32 | 25.95030 | 131.35052 | 37029 ft | 422 kts | 221° |
| 2026-05-06 03:33 | 25.90479 | 131.30935 | 37025 ft | 422 kts | 221° |
| 2026-05-06 03:33 | 25.85935 | 131.26847 | 37018 ft | 422 kts | 220° |
| 2026-05-06 03:34 | 25.81124 | 131.23032 | 37014 ft | 423 kts | 217° |
| 2026-05-06 03:34 | 25.76305 | 131.19315 | 37014 ft | 424 kts | 218° |
| 2026-05-06 03:35 | 25.71476 | 131.15587 | 37017 ft | 424 kts | 218° |
| 2026-05-06 03:35 | 25.66645 | 131.11859 | 37016 ft | 424 kts | 218° |
| 2026-05-06 03:36 | 25.61767 | 131.08099 | 37016 ft | 424 kts | 218° |
| 2026-05-06 03:36 | 25.56938 | 131.04380 | 37014 ft | 424 kts | 217° |
| 2026-05-06 03:37 | 25.52090 | 131.00651 | 37015 ft | 425 kts | 217° |
| 2026-05-06 03:37 | 25.47234 | 130.96918 | 37016 ft | 425 kts | 217° |
| 2026-05-06 03:38 | 25.42375 | 130.93188 | 37016 ft | 425 kts | 217° |
| 2026-05-06 03:38 | 25.37534 | 130.89475 | 37015 ft | 425 kts | 218° |
| 2026-05-06 03:39 | 25.32670 | 130.85748 | 37014 ft | 425 kts | 218° |
| 2026-05-06 03:39 | 25.27809 | 130.82027 | 37014 ft | 425 kts | 217° |
| 2026-05-06 03:40 | 25.22933 | 130.78299 | 37014 ft | 425 kts | 217° |
| 2026-05-06 03:40 | 25.18062 | 130.74578 | 37014 ft | 425 kts | 218° |
| 2026-05-06 03:41 | 25.13215 | 130.70878 | 37018 ft | 424 kts | 218° |
| 2026-05-06 03:41 | 25.08347 | 130.67167 | 37025 ft | 425 kts | 217° |
| 2026-05-06 03:42 | 25.03498 | 130.63474 | 37029 ft | 425 kts | 217° |
| 2026-05-06 03:42 | 24.98610 | 130.59754 | 37033 ft | 425 kts | 217° |
| 2026-05-06 03:43 | 24.93750 | 130.56059 | 37036 ft | 425 kts | 217° |
| 2026-05-06 03:43 | 24.88893 | 130.52371 | 37040 ft | 425 kts | 217° |
| 2026-05-06 03:44 | 24.84030 | 130.48682 | 37042 ft | 424 kts | 217° |
| 2026-05-06 03:44 | 24.79156 | 130.44987 | 37042 ft | 424 kts | 217° |
| 2026-05-06 03:45 | 24.74302 | 130.41312 | 37041 ft | 425 kts | 217° |
| 2026-05-06 03:45 | 24.69431 | 130.37626 | 37041 ft | 424 kts | 217° |
| 2026-05-06 03:46 | 24.64547 | 130.33935 | 37040 ft | 424 kts | 217° |
| 2026-05-06 03:46 | 24.59711 | 130.30284 | 37043 ft | 423 kts | 217° |
| 2026-05-06 03:47 | 24.54837 | 130.26608 | 37042 ft | 423 kts | 217° |
| 2026-05-06 03:47 | 24.49987 | 130.22952 | 37046 ft | 423 kts | 217° |
| 2026-05-06 03:48 | 24.45126 | 130.19292 | 37045 ft | 423 kts | 217° |
| 2026-05-06 03:48 | 24.40260 | 130.15633 | 37044 ft | 423 kts | 217° |
| 2026-05-06 03:49 | 24.35431 | 130.11994 | 37044 ft | 423 kts | 218° |
| 2026-05-06 03:49 | 24.30632 | 130.08263 | 37043 ft | 423 kts | 218° |
| 2026-05-06 03:50 | 24.25848 | 130.04538 | 37043 ft | 423 kts | 218° |
| 2026-05-06 03:50 | 24.21036 | 130.00796 | 37042 ft | 423 kts | 218° |
| 2026-05-06 03:51 | 24.16249 | 129.97077 | 37041 ft | 423 kts | 218° |
| 2026-05-06 03:51 | 24.11430 | 129.93337 | 37041 ft | 423 kts | 218° |
| 2026-05-06 03:52 | 24.06642 | 129.89624 | 37040 ft | 423 kts | 218° |
| 2026-05-06 03:52 | 24.01846 | 129.85909 | 37040 ft | 423 kts | 218° |
| 2026-05-06 03:53 | 23.97041 | 129.82190 | 37039 ft | 423 kts | 218° |
| 2026-05-06 03:53 | 23.92222 | 129.78463 | 37039 ft | 423 kts | 218° |
| 2026-05-06 03:54 | 23.87413 | 129.74749 | 37038 ft | 423 kts | 218° |
| 2026-05-06 03:54 | 23.82632 | 129.71058 | 37045 ft | 423 kts | 218° |
| 2026-05-06 03:55 | 23.77790 | 129.67326 | 37044 ft | 423 kts | 218° |
| 2026-05-06 03:55 | 23.73012 | 129.63644 | 37043 ft | 423 kts | 218° |
| 2026-05-06 03:56 | 23.68188 | 129.59932 | 37043 ft | 423 kts | 218° |
| 2026-05-06 03:56 | 23.64164 | 129.56837 | 37042 ft | 423 kts | 218° |
| 2026-05-06 03:57 | 23.59351 | 129.53139 | 37041 ft | 423 kts | 218° |
| 2026-05-06 03:57 | 23.54532 | 129.49440 | 37041 ft | 424 kts | 218° |
| 2026-05-06 03:58 | 23.49735 | 129.45761 | 37041 ft | 423 kts | 218° |
| 2026-05-06 03:58 | 23.44898 | 129.42055 | 37040 ft | 423 kts | 218° |
| 2026-05-06 03:59 | 23.40102 | 129.38383 | 37040 ft | 423 kts | 218° |
| 2026-05-06 03:59 | 23.35285 | 129.34698 | 37039 ft | 423 kts | 218° |
| 2026-05-06 04:00 | 23.30457 | 129.31010 | 37038 ft | 423 kts | 218° |
| 2026-05-06 04:00 | 23.25631 | 129.27324 | 37038 ft | 424 kts | 218° |
| 2026-05-06 04:01 | 23.20801 | 129.23640 | 37038 ft | 424 kts | 218° |
| 2026-05-06 04:01 | 23.15979 | 129.19965 | 37037 ft | 423 kts | 218° |
| 2026-05-06 04:02 | 23.11176 | 129.16308 | 37036 ft | 423 kts | 218° |
| 2026-05-06 04:02 | 23.06354 | 129.12639 | 37039 ft | 424 kts | 218° |
| 2026-05-06 04:03 | 23.01514 | 129.08960 | 37044 ft | 424 kts | 218° |
| 2026-05-06 04:03 | 22.96816 | 129.05089 | 37043 ft | 424 kts | 221° |
| 2026-05-06 04:04 | 22.92140 | 129.01130 | 37042 ft | 423 kts | 221° |
| 2026-05-06 04:04 | 22.87512 | 128.97220 | 37043 ft | 423 kts | 220° |
| 2026-05-06 04:05 | 22.82834 | 128.93274 | 37038 ft | 423 kts | 220° |
| 2026-05-06 04:05 | 22.78198 | 128.89366 | 37032 ft | 424 kts | 221° |
| 2026-05-06 04:06 | 22.73543 | 128.85446 | 37028 ft | 424 kts | 220° |
| 2026-05-06 04:06 | 22.68865 | 128.81510 | 37024 ft | 425 kts | 220° |
| 2026-05-06 04:07 | 22.64197 | 128.77586 | 37019 ft | 425 kts | 220° |
| 2026-05-06 04:07 | 22.59542 | 128.73677 | 37014 ft | 425 kts | 220° |
| 2026-05-06 04:08 | 22.54841 | 128.69731 | 37014 ft | 426 kts | 220° |
| 2026-05-06 04:08 | 22.50182 | 128.65825 | 37014 ft | 426 kts | 220° |
| 2026-05-06 04:09 | 22.45490 | 128.61894 | 37013 ft | 426 kts | 220° |
| 2026-05-06 04:09 | 22.40789 | 128.57960 | 37012 ft | 427 kts | 220° |
| 2026-05-06 04:10 | 22.36093 | 128.54033 | 37012 ft | 427 kts | 220° |
| 2026-05-06 04:10 | 22.31381 | 128.50096 | 37011 ft | 427 kts | 220° |
| 2026-05-06 04:11 | 22.26666 | 128.46160 | 37011 ft | 427 kts | 220° |
| 2026-05-06 04:11 | 22.21973 | 128.42247 | 37010 ft | 427 kts | 220° |
| 2026-05-06 04:12 | 22.17251 | 128.38312 | 37015 ft | 426 kts | 220° |
| 2026-05-06 04:12 | 22.12564 | 128.34409 | 37002 ft | 428 kts | 220° |
| 2026-05-06 04:13 | 22.07830 | 128.30472 | 36989 ft | 429 kts | 220° |
| 2026-05-06 04:13 | 22.03111 | 128.26549 | 36980 ft | 429 kts | 220° |
| 2026-05-06 04:14 | 21.98385 | 128.22625 | 36979 ft | 429 kts | 220° |
| 2026-05-06 04:14 | 21.93625 | 128.18676 | 36979 ft | 429 kts | 220° |
| 2026-05-06 04:15 | 21.88905 | 128.14762 | 36982 ft | 429 kts | 220° |
| 2026-05-06 04:15 | 21.84166 | 128.10838 | 36985 ft | 429 kts | 220° |
| 2026-05-06 04:16 | 21.79446 | 128.06931 | 36988 ft | 429 kts | 220° |
| 2026-05-06 04:16 | 21.74713 | 128.03018 | 36993 ft | 429 kts | 220° |
| 2026-05-06 04:17 | 21.69975 | 127.99104 | 36996 ft | 429 kts | 220° |
| 2026-05-06 04:17 | 21.65231 | 127.95188 | 37001 ft | 429 kts | 220° |
| 2026-05-06 04:18 | 21.60500 | 127.91287 | 37003 ft | 429 kts | 220° |
| 2026-05-06 04:18 | 21.55765 | 127.87385 | 37002 ft | 428 kts | 220° |
| 2026-05-06 04:19 | 21.51025 | 127.83482 | 37001 ft | 429 kts | 220° |
| 2026-05-06 04:19 | 21.46283 | 127.79581 | 37001 ft | 430 kts | 220° |
| 2026-05-06 04:20 | 21.41523 | 127.75668 | 37000 ft | 430 kts | 220° |
| 2026-05-06 04:20 | 21.36789 | 127.71781 | 36998 ft | 430 kts | 220° |
| 2026-05-06 04:21 | 21.32031 | 127.67876 | 36997 ft | 430 kts | 220° |
| 2026-05-06 04:21 | 21.27298 | 127.63995 | 36995 ft | 430 kts | 220° |
| 2026-05-06 04:22 | 21.22532 | 127.60091 | 36994 ft | 431 kts | 220° |
| 2026-05-06 04:23 | 21.15374 | 127.54233 | 36991 ft | 431 kts | 220° |
| 2026-05-06 04:23 | 21.10594 | 127.50326 | 36991 ft | 432 kts | 220° |
| 2026-05-06 04:24 | 21.05829 | 127.46434 | 36990 ft | 432 kts | 220° |
| 2026-05-06 04:24 | 21.01036 | 127.42522 | 36992 ft | 432 kts | 220° |
| 2026-05-06 04:25 | 20.96306 | 127.38547 | 36991 ft | 432 kts | 221° |
| 2026-05-06 04:25 | 20.91612 | 127.34567 | 36993 ft | 431 kts | 221° |
| 2026-05-06 04:26 | 20.86904 | 127.30579 | 36995 ft | 430 kts | 221° |
| 2026-05-06 04:26 | 20.82223 | 127.26618 | 36993 ft | 431 kts | 221° |
| 2026-05-06 04:27 | 20.77515 | 127.22638 | 36992 ft | 431 kts | 221° |
| 2026-05-06 04:27 | 20.72803 | 127.18658 | 36992 ft | 432 kts | 221° |
| 2026-05-06 04:28 | 20.68069 | 127.14663 | 36991 ft | 433 kts | 221° |
| 2026-05-06 04:28 | 20.63345 | 127.10679 | 36990 ft | 433 kts | 221° |
| 2026-05-06 04:29 | 20.58643 | 127.06717 | 36987 ft | 433 kts | 221° |
| 2026-05-06 04:29 | 20.53893 | 127.02718 | 36987 ft | 434 kts | 221° |
| 2026-05-06 04:30 | 20.49153 | 126.98730 | 36986 ft | 434 kts | 221° |
| 2026-05-06 04:30 | 20.45196 | 126.95403 | 36985 ft | 434 kts | 221° |
| 2026-05-06 04:31 | 20.40466 | 126.91430 | 36983 ft | 434 kts | 221° |
| 2026-05-06 04:31 | 20.35696 | 126.87426 | 36982 ft | 435 kts | 221° |
| 2026-05-06 04:32 | 20.30962 | 126.83456 | 36981 ft | 435 kts | 221° |
| 2026-05-06 04:32 | 20.26198 | 126.79464 | 36979 ft | 435 kts | 221° |
| 2026-05-06 04:33 | 20.21451 | 126.75489 | 36978 ft | 435 kts | 221° |
| 2026-05-06 04:33 | 20.16695 | 126.71510 | 36977 ft | 435 kts | 221° |
| 2026-05-06 04:34 | 20.11905 | 126.67505 | 36975 ft | 436 kts | 221° |
| 2026-05-06 04:34 | 20.07127 | 126.63515 | 36974 ft | 436 kts | 221° |
| 2026-05-06 04:35 | 20.02349 | 126.59526 | 36972 ft | 436 kts | 221° |
| 2026-05-06 04:35 | 19.97583 | 126.55551 | 36970 ft | 437 kts | 221° |
| 2026-05-06 04:36 | 19.92795 | 126.51561 | 36970 ft | 439 kts | 221° |
| 2026-05-06 04:36 | 19.87964 | 126.47538 | 36969 ft | 439 kts | 221° |
| 2026-05-06 04:37 | 19.83161 | 126.43543 | 36968 ft | 439 kts | 221° |
| 2026-05-06 04:37 | 19.78346 | 126.39539 | 36967 ft | 439 kts | 221° |
| 2026-05-06 04:38 | 19.73541 | 126.35548 | 36965 ft | 439 kts | 221° |
| 2026-05-06 04:38 | 19.68736 | 126.31560 | 36964 ft | 439 kts | 221° |
| 2026-05-06 04:39 | 19.63919 | 126.27565 | 36963 ft | 439 kts | 221° |
| 2026-05-06 04:39 | 19.59108 | 126.23577 | 36961 ft | 439 kts | 221° |
| 2026-05-06 04:40 | 19.54308 | 126.19603 | 36960 ft | 439 kts | 220° |
| 2026-05-06 04:40 | 19.49492 | 126.15618 | 36959 ft | 439 kts | 220° |
| 2026-05-06 04:41 | 19.44657 | 126.11620 | 36957 ft | 439 kts | 220° |
| 2026-05-06 04:41 | 19.39858 | 126.07655 | 36956 ft | 439 kts | 220° |
| 2026-05-06 04:42 | 19.35032 | 126.03671 | 36955 ft | 439 kts | 220° |
| 2026-05-06 04:42 | 19.30200 | 125.99686 | 36954 ft | 439 kts | 220° |
| 2026-05-06 04:43 | 19.25385 | 125.95716 | 36951 ft | 440 kts | 220° |
| 2026-05-06 04:43 | 19.20563 | 125.91744 | 36951 ft | 441 kts | 220° |
| 2026-05-06 04:44 | 19.15703 | 125.87745 | 36950 ft | 441 kts | 220° |
| 2026-05-06 04:44 | 19.10880 | 125.83778 | 36948 ft | 441 kts | 220° |
| 2026-05-06 04:45 | 19.06016 | 125.79781 | 36954 ft | 442 kts | 220° |
| 2026-05-06 04:45 | 19.01166 | 125.75800 | 36952 ft | 442 kts | 220° |
| 2026-05-06 04:46 | 18.96284 | 125.71793 | 36950 ft | 442 kts | 220° |
| 2026-05-06 04:46 | 18.91446 | 125.67827 | 36950 ft | 442 kts | 220° |
| 2026-05-06 04:47 | 18.86555 | 125.63820 | 36948 ft | 443 kts | 220° |
| 2026-05-06 04:47 | 18.81685 | 125.59833 | 36947 ft | 443 kts | 220° |
| 2026-05-06 04:48 | 18.76817 | 125.55851 | 36946 ft | 443 kts | 220° |
| 2026-05-06 04:48 | 18.71954 | 125.51876 | 36944 ft | 443 kts | 220° |
| 2026-05-06 04:49 | 18.67070 | 125.47886 | 36943 ft | 443 kts | 220° |
| 2026-05-06 04:49 | 18.62194 | 125.43907 | 36944 ft | 443 kts | 220° |
| 2026-05-06 04:50 | 18.57312 | 125.39925 | 36944 ft | 443 kts | 220° |
| 2026-05-06 04:50 | 18.52446 | 125.35960 | 36943 ft | 444 kts | 220° |
| 2026-05-06 04:51 | 18.47571 | 125.31989 | 36942 ft | 444 kts | 220° |
| 2026-05-06 04:51 | 18.42688 | 125.28016 | 36941 ft | 444 kts | 220° |
| 2026-05-06 04:52 | 18.37800 | 125.24041 | 36939 ft | 444 kts | 220° |
| 2026-05-06 04:52 | 18.32896 | 125.20056 | 36938 ft | 444 kts | 220° |
| 2026-05-06 04:53 | 18.27984 | 125.16068 | 36936 ft | 445 kts | 220° |
| 2026-05-06 04:53 | 18.23104 | 125.12108 | 36935 ft | 445 kts | 220° |
| 2026-05-06 04:54 | 18.18182 | 125.08118 | 36934 ft | 445 kts | 220° |
| 2026-05-06 04:54 | 18.13295 | 125.04158 | 36932 ft | 446 kts | 220° |
| 2026-05-06 04:55 | 18.08380 | 125.00179 | 36932 ft | 446 kts | 220° |
| 2026-05-06 04:55 | 18.03429 | 124.96174 | 36931 ft | 446 kts | 220° |
| 2026-05-06 04:56 | 17.98517 | 124.92202 | 36934 ft | 446 kts | 219° |
| 2026-05-06 04:56 | 17.93601 | 124.88230 | 36931 ft | 447 kts | 219° |
| 2026-05-06 04:57 | 17.88647 | 124.84231 | 36930 ft | 448 kts | 219° |
| 2026-05-06 04:57 | 17.83731 | 124.80266 | 36929 ft | 448 kts | 219° |
| 2026-05-06 04:58 | 17.78777 | 124.76272 | 36928 ft | 448 kts | 219° |
| 2026-05-06 04:58 | 17.73821 | 124.72281 | 36926 ft | 448 kts | 219° |
| 2026-05-06 04:59 | 17.68883 | 124.68306 | 36925 ft | 448 kts | 219° |
| 2026-05-06 04:59 | 17.63924 | 124.64317 | 36924 ft | 448 kts | 219° |
| 2026-05-06 05:00 | 17.58994 | 124.60354 | 36922 ft | 449 kts | 219° |
| 2026-05-06 05:00 | 17.54042 | 124.56377 | 36921 ft | 449 kts | 219° |
| 2026-05-06 05:01 | 17.49086 | 124.52398 | 36920 ft | 449 kts | 219° |
| 2026-05-06 05:01 | 17.44120 | 124.48415 | 36919 ft | 449 kts | 219° |
| 2026-05-06 05:02 | 17.39140 | 124.44423 | 36922 ft | 449 kts | 219° |
| 2026-05-06 05:02 | 17.34191 | 124.40460 | 36920 ft | 449 kts | 219° |
| 2026-05-06 05:03 | 17.29221 | 124.36482 | 36918 ft | 449 kts | 219° |
| 2026-05-06 05:03 | 17.24254 | 124.32510 | 36918 ft | 449 kts | 219° |
| 2026-05-06 05:04 | 17.19275 | 124.28530 | 36916 ft | 449 kts | 219° |
| 2026-05-06 05:04 | 17.15129 | 124.25219 | 36915 ft | 449 kts | 219° |
| 2026-05-06 05:05 | 17.10168 | 124.21259 | 36914 ft | 449 kts | 219° |
| 2026-05-06 05:05 | 17.05210 | 124.17304 | 36912 ft | 449 kts | 219° |
| 2026-05-06 05:06 | 17.00221 | 124.13328 | 36896 ft | 451 kts | 219° |
| 2026-05-06 05:06 | 16.95223 | 124.09347 | 36874 ft | 451 kts | 219° |
| 2026-05-06 05:07 | 16.90255 | 124.05392 | 36862 ft | 452 kts | 219° |
| 2026-05-06 05:07 | 16.85228 | 124.01393 | 36861 ft | 452 kts | 219° |
| 2026-05-06 05:08 | 16.80224 | 123.97416 | 36862 ft | 453 kts | 219° |
| 2026-05-06 05:08 | 16.75211 | 123.93434 | 36864 ft | 454 kts | 219° |
| 2026-05-06 05:09 | 16.70191 | 123.89449 | 36866 ft | 454 kts | 219° |
| 2026-05-06 05:09 | 16.65147 | 123.85448 | 36867 ft | 454 kts | 219° |
| 2026-05-06 05:10 | 16.60133 | 123.81473 | 36867 ft | 454 kts | 218° |
| 2026-05-06 05:10 | 16.55111 | 123.77494 | 36873 ft | 454 kts | 218° |
| 2026-05-06 05:11 | 16.50072 | 123.73505 | 36875 ft | 454 kts | 218° |
| 2026-05-06 05:11 | 16.45029 | 123.69515 | 36880 ft | 454 kts | 218° |
| 2026-05-06 05:12 | 16.39977 | 123.65521 | 36883 ft | 455 kts | 218° |
| 2026-05-06 05:12 | 16.34955 | 123.61553 | 36885 ft | 455 kts | 218° |
| 2026-05-06 05:13 | 16.29908 | 123.57568 | 36882 ft | 455 kts | 218° |
| 2026-05-06 05:13 | 16.24868 | 123.53591 | 36879 ft | 455 kts | 218° |
| 2026-05-06 05:14 | 16.19821 | 123.49612 | 36876 ft | 455 kts | 218° |
| 2026-05-06 05:14 | 16.14800 | 123.45655 | 36877 ft | 455 kts | 218° |
| 2026-05-06 05:15 | 16.09747 | 123.41677 | 36874 ft | 455 kts | 218° |
| 2026-05-06 05:15 | 16.04678 | 123.37687 | 36871 ft | 455 kts | 218° |
| 2026-05-06 05:16 | 15.99658 | 123.33740 | 36868 ft | 455 kts | 218° |
| 2026-05-06 05:16 | 15.94592 | 123.29757 | 36870 ft | 455 kts | 218° |
| 2026-05-06 05:17 | 15.89550 | 123.25798 | 36866 ft | 455 kts | 218° |
| 2026-05-06 05:17 | 15.84491 | 123.21826 | 36863 ft | 456 kts | 218° |
| 2026-05-06 05:18 | 15.79441 | 123.17865 | 36860 ft | 456 kts | 218° |
| 2026-05-06 05:18 | 15.74379 | 123.13897 | 36857 ft | 456 kts | 218° |
| 2026-05-06 05:19 | 15.69297 | 123.09915 | 36857 ft | 457 kts | 218° |
| 2026-05-06 05:19 | 15.64224 | 123.05949 | 36843 ft | 457 kts | 222° |
| 2026-05-06 05:19 | 15.62046 | 123.03537 | 36849 ft | 456 kts | 233° |
| 2026-05-06 05:20 | 15.60388 | 123.00761 | 36867 ft | 455 kts | 244° |
| 2026-05-06 05:20 | 15.57675 | 122.94816 | 36861 ft | 454 kts | 244° |
| 2026-05-06 05:21 | 15.54663 | 122.89078 | 36847 ft | 454 kts | 240° |
| 2026-05-06 05:21 | 15.51532 | 122.83391 | 36847 ft | 454 kts | 241° |
| 2026-05-06 05:22 | 15.48395 | 122.77685 | 36848 ft | 454 kts | 241° |
| 2026-05-06 05:22 | 15.45287 | 122.72033 | 36849 ft | 454 kts | 241° |
| 2026-05-06 05:23 | 15.42154 | 122.66343 | 36850 ft | 454 kts | 241° |
| 2026-05-06 05:23 | 15.37452 | 122.57808 | 36852 ft | 454 kts | 241° |
| 2026-05-06 05:24 | 15.34304 | 122.52101 | 36853 ft | 454 kts | 241° |
| 2026-05-06 05:24 | 15.31185 | 122.46449 | 36858 ft | 454 kts | 241° |
| 2026-05-06 05:25 | 15.28050 | 122.40772 | 36858 ft | 454 kts | 241° |
| 2026-05-06 05:25 | 15.24907 | 122.35086 | 36860 ft | 455 kts | 241° |
| 2026-05-06 05:26 | 15.21754 | 122.29386 | 36861 ft | 455 kts | 241° |
| 2026-05-06 05:26 | 15.18609 | 122.23705 | 36862 ft | 455 kts | 241° |
| 2026-05-06 05:27 | 15.15451 | 122.18005 | 36861 ft | 454 kts | 240° |
| 2026-05-06 05:27 | 15.12303 | 122.12326 | 36863 ft | 455 kts | 240° |
| 2026-05-06 05:28 | 15.09165 | 122.06671 | 36864 ft | 455 kts | 240° |
| 2026-05-06 05:28 | 15.06002 | 122.00973 | 36865 ft | 455 kts | 240° |
| 2026-05-06 05:29 | 15.02831 | 121.95287 | 36862 ft | 455 kts | 239° |
| 2026-05-06 05:29 | 15.00142 | 121.89416 | 36850 ft | 456 kts | 256° |
| 2026-05-06 05:30 | 14.99646 | 121.86147 | 36860 ft | 456 kts | 267° |
| 2026-05-06 05:30 | 14.99645 | 121.82907 | 36877 ft | 456 kts | 271° |
| 2026-05-06 05:30 | 14.99804 | 121.76359 | 36862 ft | 455 kts | 271° |
| 2026-05-06 05:31 | 14.99631 | 121.69785 | 36849 ft | 456 kts | 266° |
| 2026-05-06 05:31 | 14.99255 | 121.63265 | 36846 ft | 456 kts | 266° |
| 2026-05-06 05:32 | 14.98883 | 121.56689 | 36841 ft | 453 kts | 266° |
| 2026-05-06 05:32 | 14.98701 | 121.53471 | 36775 ft | 441 kts | 266° |
| 2026-05-06 05:32 | 14.98524 | 121.50351 | 36331 ft | 434 kts | 266° |
| 2026-05-06 05:33 | 14.98348 | 121.47262 | 35631 ft | 434 kts | 266° |
| 2026-05-06 05:33 | 14.98169 | 121.44131 | 34792 ft | 436 kts | 266° |
| 2026-05-06 05:33 | 14.97990 | 121.40993 | 33891 ft | 439 kts | 266° |
| 2026-05-06 05:33 | 14.97809 | 121.37838 | 32953 ft | 441 kts | 266° |
| 2026-05-06 05:34 | 14.97625 | 121.34632 | 31959 ft | 444 kts | 266° |
| 2026-05-06 05:34 | 14.97442 | 121.31447 | 30969 ft | 447 kts | 266° |
| 2026-05-06 05:34 | 14.97259 | 121.28270 | 30334 ft | 441 kts | 266° |
| 2026-05-06 05:34 | 14.97077 | 121.25137 | 29729 ft | 434 kts | 266° |
| 2026-05-06 05:35 | 14.96897 | 121.22028 | 29084 ft | 429 kts | 266° |
| 2026-05-06 05:35 | 14.96718 | 121.18946 | 28445 ft | 425 kts | 266° |
| 2026-05-06 05:35 | 14.96542 | 121.15925 | 27836 ft | 420 kts | 266° |
| 2026-05-06 05:35 | 14.96368 | 121.12935 | 27233 ft | 416 kts | 266° |
| 2026-05-06 05:36 | 14.96194 | 121.09958 | 26630 ft | 412 kts | 266° |
| 2026-05-06 05:36 | 14.96020 | 121.06999 | 26038 ft | 409 kts | 266° |
| 2026-05-06 05:36 | 14.95848 | 121.04062 | 25447 ft | 405 kts | 266° |
| 2026-05-06 05:36 | 14.95677 | 121.01166 | 24873 ft | 402 kts | 266° |
| 2026-05-06 05:37 | 14.95508 | 120.98309 | 24308 ft | 399 kts | 266° |
| 2026-05-06 05:37 | 14.95339 | 120.95443 | 23738 ft | 396 kts | 266° |
| 2026-05-06 05:37 | 14.95171 | 120.92609 | 23176 ft | 393 kts | 266° |
| 2026-05-06 05:37 | 14.95004 | 120.89804 | 22648 ft | 391 kts | 266° |
| 2026-05-06 05:38 | 14.94741 | 120.87018 | 21897 ft | 392 kts | 259° |
| 2026-05-06 05:38 | 14.93912 | 120.84310 | 20939 ft | 399 kts | 244° |
| 2026-05-06 05:38 | 14.92468 | 120.81888 | 20381 ft | 394 kts | 232° |
| 2026-05-06 05:38 | 14.90565 | 120.79893 | 19963 ft | 386 kts | 217° |
| 2026-05-06 05:39 | 14.88295 | 120.78490 | 19622 ft | 377 kts | 202° |
| 2026-05-06 05:39 | 14.85827 | 120.77612 | 19266 ft | 370 kts | 197° |
| 2026-05-06 05:39 | 14.83371 | 120.76857 | 18770 ft | 368 kts | 195° |
| 2026-05-06 05:39 | 14.80932 | 120.76061 | 18265 ft | 367 kts | 199° |
| 2026-05-06 05:40 | 14.78560 | 120.75165 | 17797 ft | 364 kts | 200° |
| 2026-05-06 05:40 | 14.76981 | 120.74543 | 17485 ft | 362 kts | 200° |
| 2026-05-06 05:40 | 14.74637 | 120.73618 | 17021 ft | 360 kts | 200° |
| 2026-05-06 05:40 | 14.72302 | 120.72706 | 16560 ft | 358 kts | 200° |
| 2026-05-06 05:41 | 14.69956 | 120.71793 | 16138 ft | 355 kts | 200° |
| 2026-05-06 05:41 | 14.67677 | 120.70906 | 15884 ft | 347 kts | 200° |
| 2026-05-06 05:41 | 14.65444 | 120.70036 | 15707 ft | 338 kts | 200° |
| 2026-05-06 05:41 | 14.63229 | 120.69360 | 15524 ft | 329 kts | 187° |
| 2026-05-06 05:42 | 14.60999 | 120.69358 | 15369 ft | 319 kts | 168° |
| 2026-05-06 05:42 | 14.58917 | 120.70064 | 15266 ft | 309 kts | 155° |
| 2026-05-06 05:42 | 14.57047 | 120.71093 | 15189 ft | 300 kts | 148° |
| 2026-05-06 05:42 | 14.55262 | 120.72137 | 15108 ft | 292 kts | 157° |
| 2026-05-06 05:43 | 14.53284 | 120.72481 | 15073 ft | 284 kts | 184° |
| 2026-05-06 05:43 | 14.51415 | 120.71947 | 15082 ft | 275 kts | 203° |
| 2026-05-06 05:43 | 14.49811 | 120.70958 | 15020 ft | 270 kts | 222° |
| 2026-05-06 05:43 | 14.48556 | 120.69496 | 14827 ft | 271 kts | 234° |
| 2026-05-06 05:44 | 14.47574 | 120.67815 | 14532 ft | 276 kts | 242° |
| 2026-05-06 05:44 | 14.46692 | 120.66052 | 14249 ft | 278 kts | 242° |
| 2026-05-06 05:44 | 14.45781 | 120.64296 | 13982 ft | 280 kts | 240° |
| 2026-05-06 05:44 | 14.44820 | 120.62551 | 13713 ft | 282 kts | 239° |
| 2026-05-06 05:45 | 14.43827 | 120.60785 | 13438 ft | 284 kts | 239° |
| 2026-05-06 05:45 | 14.42839 | 120.59024 | 13170 ft | 285 kts | 239° |
| 2026-05-06 05:45 | 14.41846 | 120.57243 | 12908 ft | 286 kts | 239° |
| 2026-05-06 05:45 | 14.40846 | 120.55445 | 12668 ft | 286 kts | 239° |
| 2026-05-06 05:46 | 14.39871 | 120.53694 | 12454 ft | 285 kts | 239° |
| 2026-05-06 05:46 | 14.38872 | 120.51904 | 12230 ft | 284 kts | 239° |
| 2026-05-06 05:46 | 14.37891 | 120.50146 | 12023 ft | 284 kts | 239° |
| 2026-05-06 05:46 | 14.36908 | 120.48385 | 11807 ft | 283 kts | 239° |
| 2026-05-06 05:47 | 14.35895 | 120.46657 | 11576 ft | 282 kts | 232° |
| 2026-05-06 05:47 | 14.34425 | 120.45355 | 11306 ft | 279 kts | 205° |
| 2026-05-06 05:47 | 14.32586 | 120.44828 | 11048 ft | 277 kts | 182° |
| 2026-05-06 05:47 | 14.30698 | 120.45103 | 10828 ft | 273 kts | 160° |
| 2026-05-06 05:48 | 14.28991 | 120.45932 | 10636 ft | 270 kts | 148° |
| 2026-05-06 05:48 | 14.27400 | 120.46951 | 10462 ft | 268 kts | 145° |
| 2026-05-06 05:48 | 14.25841 | 120.47985 | 10291 ft | 266 kts | 146° |
| 2026-05-06 05:48 | 14.24499 | 120.49282 | 10063 ft | 264 kts | 122° |
| 2026-05-06 05:49 | 14.23874 | 120.51038 | 9920 ft | 257 kts | 98° |
| 2026-05-06 05:49 | 14.23827 | 120.52841 | 9730 ft | 250 kts | 79° |
| 2026-05-06 05:49 | 14.24352 | 120.54520 | 9509 ft | 245 kts | 66° |
| 2026-05-06 05:49 | 14.25166 | 120.56038 | 9210 ft | 244 kts | 59° |